Delta Virtual Airport Information Service

Glasgow International Airport

ICAO: EGPF Country: United Kingdom
Latitude: 55.8719 Longitude: -4.43305
Latest Arrival : EZY401 (1) (EGGD-EGPF) Latest Departure : EZY462 (1) (EGPF-EGAA)


WX CaptureLIVE
Data provided by noaa.gov | Fetched at 01:15:37

METAR : EGPF 300550Z AUTO 28002KT 6000 NCD 04/04 Q1022

TAF : EGPF 300550Z AUTO 28002KT 6000 NCD 04/04 Q1022


Runway Data for EGPF
Data provided by openaviationdata.com

Runway ID Mag Var Hdg Length Elevation Surface ILS Freq ILS Id ILS Slope
5 -3 49° 8724 ft 26 ft Asphalt 110.1 IUU 3
10 -3 94° 3625 ft 26 ft Asphalt -- -- --
23 -3 229° 8724 ft 26 ft Asphalt 110.1 IOO 3
28 -3 274° 3625 ft 26 ft Asphalt -- -- --

Glasgow International Airport, United Kingdom
Use only for reference purposes



Not for navigational purposes.